createdAt,value
2023-05-07T00:00:27.629Z,12.50
2023-05-07T00:03:03.441Z,12.80
2023-05-07T00:05:39.633Z,12.90
2023-05-07T00:08:16.950Z,13.60
2023-05-07T00:10:53.168Z,13.70
2023-05-07T00:13:31.489Z,13.20
2023-05-07T00:16:07.507Z,13.00
2023-05-07T00:18:43.938Z,13.20
2023-05-07T00:21:20.874Z,12.60
2023-05-07T00:23:57.652Z,12.70
2023-05-07T00:26:34.130Z,12.60
2023-05-07T00:29:11.104Z,13.60
2023-05-07T00:31:46.846Z,13.60
2023-05-07T00:34:22.614Z,13.50
2023-05-07T00:36:59.143Z,14.00
2023-05-07T00:39:35.832Z,13.50
2023-05-07T00:42:12.725Z,13.60
2023-05-07T00:44:50.019Z,13.30
2023-05-07T00:47:26.440Z,13.60
2023-05-07T00:50:03.936Z,14.40
2023-05-07T00:52:39.394Z,14.10
2023-05-07T00:55:17.512Z,13.30
2023-05-07T00:57:54.414Z,14.00
2023-05-07T01:00:30.860Z,13.30
2023-05-07T01:03:08.236Z,13.60
2023-05-07T01:05:46.081Z,14.10
2023-05-07T01:08:24.082Z,13.00
2023-05-07T01:11:01.380Z,13.70
2023-05-07T01:13:38.429Z,14.60
2023-05-07T01:16:18.780Z,13.40
2023-05-07T01:18:55.833Z,14.30
2023-05-07T01:21:37.677Z,13.30
2023-05-07T01:24:15.801Z,13.80
2023-05-07T01:26:51.997Z,14.00
2023-05-07T01:29:28.808Z,14.40
2023-05-07T01:32:06.542Z,13.20
2023-05-07T01:34:43.923Z,11.60
2023-05-07T01:37:21.921Z,12.80
2023-05-07T01:39:58.043Z,13.30
2023-05-07T01:42:35.277Z,11.70
2023-05-07T01:45:15.216Z,14.60
2023-05-07T01:47:53.297Z,13.50
2023-05-07T01:50:30.676Z,13.30
2023-05-07T01:53:06.895Z,13.50
2023-05-07T01:55:43.479Z,12.70
2023-05-07T01:58:20.125Z,12.30
2023-05-07T02:00:56.147Z,11.70
2023-05-07T02:03:32.146Z,11.20
2023-05-07T02:06:14.770Z,11.60
2023-05-07T02:08:51.132Z,10.60
2023-05-07T02:11:28.065Z,10.70
2023-05-07T02:14:03.825Z,10.30
2023-05-07T02:16:41.315Z,11.20
2023-05-07T02:19:17.331Z,10.70
2023-05-07T02:21:53.664Z,11.70
2023-05-07T02:24:29.916Z,12.10
2023-05-07T02:27:06.066Z,11.50
2023-05-07T02:29:42.863Z,11.20
2023-05-07T02:32:19.660Z,11.80
2023-05-07T02:37:53.278Z,11.90
2023-05-07T02:40:31.402Z,12.30
2023-05-07T02:43:09.351Z,11.80
2023-05-07T02:45:46.745Z,11.20
2023-05-07T02:48:23.628Z,11.80
2023-05-07T02:51:00.207Z,11.20
2023-05-07T02:53:36.150Z,11.80
2023-05-07T02:56:18.212Z,12.20
2023-05-07T02:58:54.703Z,11.70
2023-05-07T03:01:32.650Z,11.80
2023-05-07T03:04:14.569Z,12.30
2023-05-07T03:06:50.546Z,11.90
2023-05-07T03:09:27.198Z,12.70
2023-05-07T03:12:05.139Z,13.30
2023-05-07T03:14:41.356Z,12.80
2023-05-07T03:17:17.729Z,13.10
2023-05-07T03:19:53.373Z,13.40
2023-05-07T03:22:35.078Z,13.30
2023-05-07T03:25:15.211Z,12.90
2023-05-07T03:27:52.665Z,12.60
2023-05-07T03:30:30.290Z,12.70
2023-05-07T03:33:06.368Z,13.20
2023-05-07T03:35:42.594Z,12.70
2023-05-07T03:38:20.146Z,12.60
2023-05-07T03:40:58.964Z,12.80
2023-05-07T03:43:35.562Z,13.00
2023-05-07T03:46:17.396Z,13.80
2023-05-07T03:48:55.263Z,13.20
2023-05-07T03:51:32.125Z,13.80
2023-05-07T03:54:08.971Z,13.10
2023-05-07T03:56:46.144Z,13.80
2023-05-07T03:59:22.451Z,13.60
2023-05-07T04:02:00.363Z,13.50
2023-05-07T04:04:40.551Z,12.80
2023-05-07T04:07:18.494Z,13.50
2023-05-07T04:09:58.586Z,13.10
2023-05-07T04:12:34.840Z,14.00
2023-05-07T04:15:14.304Z,13.60
2023-05-07T04:17:53.238Z,12.80
2023-05-07T04:20:31.535Z,13.20
2023-05-07T04:23:12.258Z,12.10
2023-05-07T04:25:49.177Z,12.60
2023-05-07T04:28:54.865Z,13.30
2023-05-07T04:31:31.786Z,13.40
2023-05-07T04:34:08.604Z,14.00
2023-05-07T04:36:44.376Z,14.40
2023-05-07T04:39:22.067Z,14.20
2023-05-07T04:41:59.296Z,12.70
2023-05-07T04:44:36.304Z,14.00
2023-05-07T04:47:13.316Z,13.80
2023-05-07T04:49:49.717Z,13.70
2023-05-07T04:52:27.537Z,14.10
2023-05-07T04:55:05.863Z,14.10
2023-05-07T04:57:45.486Z,13.60
2023-05-07T05:00:25.003Z,14.10
2023-05-07T05:03:01.330Z,14.30
2023-05-07T05:05:39.016Z,13.50
2023-05-07T05:08:15.682Z,13.10
2023-05-07T05:10:52.156Z,13.60
2023-05-07T05:13:28.855Z,12.40
2023-05-07T05:16:05.347Z,12.20
2023-05-07T05:18:42.458Z,12.00
2023-05-07T05:21:19.815Z,12.10
2023-05-07T05:23:57.447Z,11.90
2023-05-07T05:26:35.419Z,13.30
2023-05-07T05:29:12.211Z,12.50
2023-05-07T05:31:50.706Z,12.50
2023-05-07T05:34:27.942Z,11.80
2023-05-07T05:37:05.450Z,12.80
2023-05-07T05:39:42.721Z,12.20
2023-05-07T05:42:19.908Z,13.10
2023-05-07T05:44:56.510Z,15.30
2023-05-07T05:47:35.571Z,15.30
2023-05-07T05:50:15.159Z,14.30
2023-05-07T05:52:51.262Z,15.20
2023-05-07T05:55:29.256Z,15.10
2023-05-07T05:58:05.744Z,15.40
2023-05-07T06:00:43.335Z,15.70
2023-05-07T06:03:20.378Z,15.60
2023-05-07T06:05:57.999Z,14.50
2023-05-07T06:08:35.665Z,15.90
2023-05-07T06:11:13.495Z,16.50
2023-05-07T06:13:51.024Z,16.00
2023-05-07T06:16:28.068Z,16.60
2023-05-07T06:19:05.160Z,17.60
2023-05-07T06:21:41.938Z,17.10
2023-05-07T06:24:18.901Z,16.30
2023-05-07T06:26:55.391Z,17.50
2023-05-07T06:29:32.828Z,16.40
2023-05-07T06:32:18.143Z,15.90
2023-05-07T06:34:55.018Z,16.60
2023-05-07T06:37:31.626Z,16.40
2023-05-07T06:40:19.550Z,17.30
2023-05-07T06:42:56.598Z,16.60
2023-05-07T06:45:45.559Z,16.50
2023-05-07T06:48:21.462Z,16.20
2023-05-07T06:51:06.856Z,17.30
2023-05-07T06:53:43.916Z,16.20
2023-05-07T06:56:21.316Z,15.60
2023-05-07T06:58:58.349Z,15.70
2023-05-07T07:01:35.857Z,15.20
2023-05-07T07:04:13.617Z,15.20
2023-05-07T07:06:50.654Z,14.80
2023-05-07T07:09:27.102Z,13.70
2023-05-07T07:12:04.192Z,15.20
2023-05-07T07:14:40.445Z,15.60
2023-05-07T07:17:17.441Z,16.20
2023-05-07T07:19:53.257Z,15.20
2023-05-07T07:22:30.218Z,16.60
2023-05-07T07:25:06.626Z,16.20
2023-05-07T07:27:44.674Z,16.10
2023-05-07T07:30:22.251Z,16.20
2023-05-07T07:33:03.617Z,16.00
2023-05-07T07:35:41.567Z,15.00
2023-05-07T07:38:18.594Z,15.50
2023-05-07T07:40:56.083Z,15.20
2023-05-07T07:43:33.068Z,14.50
2023-05-07T07:46:10.514Z,17.50
2023-05-07T07:48:46.433Z,16.40
2023-05-07T07:51:22.737Z,16.20
2023-05-07T07:53:59.308Z,16.20
2023-05-07T07:56:35.013Z,17.00
2023-05-07T07:59:12.264Z,16.40
2023-05-07T08:01:53.389Z,15.40
2023-05-07T08:04:34.472Z,17.00
2023-05-07T08:07:13.420Z,17.70
2023-05-07T08:09:52.595Z,16.50
2023-05-07T08:12:31.231Z,16.60
2023-05-07T08:15:08.700Z,16.40
2023-05-07T08:17:45.414Z,14.40
2023-05-07T08:20:23.768Z,14.50
2023-05-07T08:23:01.430Z,12.50
2023-05-07T08:25:39.116Z,11.40
2023-05-07T08:28:15.357Z,12.60
2023-05-07T08:30:52.099Z,13.40
2023-05-07T08:33:29.363Z,12.70
2023-05-07T08:36:06.850Z,13.20
2023-05-07T08:38:45.629Z,13.00
2023-05-07T08:41:21.994Z,12.20
2023-05-07T08:44:00.595Z,11.90
2023-05-07T08:46:41.186Z,11.30
2023-05-07T08:49:17.385Z,13.50
2023-05-07T08:51:55.285Z,14.60
2023-05-07T08:54:34.632Z,14.00
2023-05-07T08:57:11.371Z,15.20
2023-05-07T08:59:49.043Z,14.40
2023-05-07T09:02:25.487Z,13.10
2023-05-07T09:05:01.988Z,13.20
2023-05-07T09:07:39.357Z,14.40
2023-05-07T09:10:20.274Z,14.40
2023-05-07T09:12:57.562Z,14.30
2023-05-07T09:15:33.707Z,15.30
2023-05-07T09:18:10.845Z,14.90
2023-05-07T09:20:47.486Z,14.80
2023-05-07T09:23:25.977Z,13.60
2023-05-07T09:26:12.765Z,14.10
2023-05-07T09:28:50.911Z,11.70
2023-05-07T09:31:27.252Z,11.60
2023-05-07T09:34:04.504Z,11.80
2023-05-07T09:36:42.446Z,10.90
2023-05-07T09:39:18.991Z,11.80
2023-05-07T09:41:55.852Z,11.50
2023-05-07T09:44:40.392Z,13.80
2023-05-07T09:47:23.245Z,14.20
2023-05-07T09:50:07.397Z,17.20
2023-05-07T09:52:45.461Z,13.90
2023-05-07T09:55:21.660Z,17.10
2023-05-07T09:58:01.136Z,15.30
2023-05-07T10:00:38.797Z,15.70
2023-05-07T10:03:18.672Z,14.60
2023-05-07T10:06:03.274Z,13.60
2023-05-07T10:08:39.284Z,13.30
2023-05-07T10:11:18.514Z,12.60
2023-05-07T10:13:55.710Z,11.80
2023-05-07T10:16:34.630Z,11.70
2023-05-07T10:19:11.223Z,11.10
2023-05-07T10:21:58.778Z,10.60
2023-05-07T10:24:40.045Z,10.80
2023-05-07T10:27:22.826Z,12.30
2023-05-07T10:30:16.826Z,12.20
2023-05-07T10:32:58.675Z,12.80
2023-05-07T10:35:48.393Z,12.80
2023-05-07T10:38:26.565Z,13.50
2023-05-07T10:41:03.119Z,13.10
2023-05-07T10:43:48.482Z,12.30
2023-05-07T10:46:31.906Z,11.60
2023-05-07T10:49:19.082Z,11.50
2023-05-07T10:52:31.692Z,10.20
2023-05-07T10:55:35.340Z,11.50
2023-05-07T10:58:34.399Z,11.70
2023-05-07T11:02:00.379Z,12.10
2023-05-07T11:04:46.434Z,14.30
2023-05-07T11:07:57.516Z,10.60
2023-05-07T11:10:56.460Z,11.70
2023-05-07T11:13:58.780Z,10.80
2023-05-07T11:16:45.080Z,10.10
2023-05-07T11:19:56.169Z,11.80
2023-05-07T11:26:10.290Z,10.20
2023-05-07T11:28:48.576Z,12.40
2023-05-07T11:31:30.566Z,13.10
2023-05-07T11:34:09.016Z,11.80
2023-05-07T11:36:50.472Z,9.70
2023-05-07T11:39:38.744Z,8.90
2023-05-07T11:42:34.274Z,8.80
2023-05-07T11:45:14.412Z,10.60
2023-05-07T11:47:51.945Z,9.00
2023-05-07T11:50:29.515Z,8.80
2023-05-07T11:53:10.414Z,8.80
2023-05-07T11:55:47.003Z,7.80
2023-05-07T11:58:30.326Z,11.10
2023-05-07T12:01:06.507Z,8.50
2023-05-07T12:03:43.948Z,9.50
2023-05-07T12:06:21.224Z,8.30
2023-05-07T12:08:57.862Z,6.90
2023-05-07T12:11:34.107Z,7.90
2023-05-07T12:14:12.114Z,8.30
2023-05-07T12:16:50.352Z,9.60
2023-05-07T12:19:27.502Z,8.80
2023-05-07T12:22:04.326Z,8.60
2023-05-07T12:24:53.144Z,7.50
2023-05-07T12:27:29.356Z,6.80
2023-05-07T12:30:06.292Z,6.30
2023-05-07T12:32:43.005Z,6.00
2023-05-07T12:35:20.068Z,6.90
2023-05-07T12:38:05.552Z,6.40
2023-05-07T12:40:48.835Z,7.00
2023-05-07T12:43:30.515Z,6.20
2023-05-07T12:46:10.913Z,5.90
2023-05-07T12:48:51.761Z,6.10
2023-05-07T12:51:28.370Z,7.20
2023-05-07T12:54:06.415Z,5.40
2023-05-07T12:56:44.106Z,6.20
2023-05-07T12:59:21.087Z,5.70
2023-05-07T13:01:57.451Z,5.60
2023-05-07T13:04:34.821Z,6.40
2023-05-07T13:07:11.140Z,6.10
2023-05-07T13:09:48.922Z,6.60
2023-05-07T13:12:25.430Z,5.50
2023-05-07T13:15:01.591Z,5.90
2023-05-07T13:17:37.991Z,5.60
2023-05-07T13:20:18.304Z,6.60
2023-05-07T13:22:55.116Z,6.80
2023-05-07T13:25:30.709Z,6.90
2023-05-07T13:28:11.195Z,8.60
2023-05-07T13:30:48.298Z,6.80
2023-05-07T13:33:23.696Z,7.00
2023-05-07T13:36:01.713Z,8.30
2023-05-07T13:38:37.954Z,7.40
2023-05-07T13:41:15.467Z,7.20
2023-05-07T13:43:51.645Z,6.90
2023-05-07T13:46:28.002Z,6.70
2023-05-07T13:49:04.740Z,6.40
2023-05-07T13:51:40.737Z,6.90
2023-05-07T13:54:16.967Z,7.80
2023-05-07T13:56:52.711Z,7.80
2023-05-07T13:59:29.563Z,7.50
2023-05-07T14:02:06.719Z,8.60
2023-05-07T14:04:43.617Z,7.00
2023-05-07T14:07:19.799Z,6.00
2023-05-07T14:09:56.201Z,5.60
2023-05-07T14:12:32.172Z,6.20
2023-05-07T14:15:11.247Z,6.50
2023-05-07T14:17:48.093Z,6.60
2023-05-07T14:20:24.942Z,6.30
2023-05-07T14:23:01.175Z,7.40
2023-05-07T14:25:37.557Z,8.30
2023-05-07T14:28:14.280Z,8.40
2023-05-07T14:30:50.349Z,8.70
2023-05-07T14:33:26.300Z,7.90
2023-05-07T14:36:02.494Z,9.30
2023-05-07T14:38:39.888Z,8.60
2023-05-07T14:41:16.278Z,8.80
2023-05-07T14:43:53.171Z,9.60
2023-05-07T14:46:30.482Z,10.10
2023-05-07T14:49:06.970Z,9.20
2023-05-07T14:51:44.097Z,8.40
2023-05-07T14:54:20.450Z,8.00
2023-05-07T14:56:56.669Z,10.00
2023-05-07T14:59:32.522Z,8.20
2023-05-07T15:02:09.360Z,8.40
2023-05-07T15:04:48.814Z,10.40
2023-05-07T15:07:25.510Z,9.50
2023-05-07T15:10:02.604Z,8.90
2023-05-07T15:12:37.918Z,7.90
2023-05-07T15:15:20.585Z,7.70
2023-05-07T15:17:57.110Z,7.40
2023-05-07T15:20:33.649Z,7.90
2023-05-07T15:23:10.989Z,8.20
2023-05-07T15:25:48.398Z,8.80
2023-05-07T15:28:27.005Z,8.60
2023-05-07T15:31:04.426Z,8.00
2023-05-07T15:33:40.636Z,9.10
2023-05-07T15:36:18.083Z,8.00
2023-05-07T15:38:54.739Z,8.20
2023-05-07T15:41:30.320Z,8.80
2023-05-07T15:44:07.498Z,8.00
2023-05-07T15:46:43.739Z,8.50
2023-05-07T15:49:20.580Z,8.30
2023-05-07T15:51:56.887Z,8.90
2023-05-07T15:54:33.273Z,7.90
2023-05-07T15:57:11.109Z,8.10
2023-05-07T15:59:46.370Z,8.50
2023-05-07T16:02:21.705Z,8.30
2023-05-07T16:04:58.418Z,8.90
2023-05-07T16:07:34.614Z,8.10
2023-05-07T16:10:15.963Z,8.00
2023-05-07T16:12:52.141Z,7.60
2023-05-07T16:15:28.856Z,7.90
2023-05-07T16:18:05.508Z,8.00
2023-05-07T16:20:41.948Z,8.10
2023-05-07T16:23:17.871Z,8.70
2023-05-07T16:25:54.443Z,8.50
2023-05-07T16:28:31.382Z,7.70
2023-05-07T16:31:07.755Z,8.40
2023-05-07T16:33:44.141Z,8.30
2023-05-07T16:36:19.998Z,8.90
2023-05-07T16:38:56.642Z,8.00
2023-05-07T16:41:33.919Z,8.10
2023-05-07T16:44:11.160Z,9.00
2023-05-07T16:46:47.913Z,8.30
2023-05-07T16:49:24.691Z,9.20
2023-05-07T16:52:01.001Z,9.20
2023-05-07T16:54:37.904Z,8.40
2023-05-07T16:57:14.144Z,8.80
2023-05-07T16:59:50.867Z,9.10
2023-05-07T17:02:28.270Z,8.70
2023-05-07T17:05:04.724Z,8.30
2023-05-07T17:07:40.678Z,8.60
2023-05-07T17:10:20.498Z,8.50
2023-05-07T17:12:57.112Z,9.90
2023-05-07T17:15:34.193Z,9.30
2023-05-07T17:18:11.101Z,10.30
2023-05-07T17:20:47.532Z,10.90
2023-05-07T17:23:23.853Z,9.90
2023-05-07T17:26:00.408Z,9.30
2023-05-07T17:28:38.719Z,9.00
2023-05-07T17:31:16.085Z,8.30
2023-05-07T17:33:52.768Z,7.90
2023-05-07T17:36:29.682Z,8.00
2023-05-07T17:39:06.421Z,9.00
2023-05-07T17:41:44.473Z,8.50
2023-05-07T17:44:21.464Z,10.20
2023-05-07T17:46:57.666Z,8.60
2023-05-07T17:49:33.703Z,8.60
2023-05-07T17:52:10.196Z,8.70
2023-05-07T17:54:47.172Z,8.70
2023-05-07T17:57:23.446Z,9.10
2023-05-07T18:00:00.309Z,9.70
2023-05-07T18:02:37.207Z,8.30
2023-05-07T18:05:15.916Z,8.60
2023-05-07T18:07:52.110Z,8.80
2023-05-07T18:10:28.305Z,10.30
2023-05-07T18:13:04.430Z,10.30
2023-05-07T18:15:40.876Z,9.60
2023-05-07T18:18:18.954Z,9.90
2023-05-07T18:20:58.803Z,9.60
2023-05-07T18:23:36.947Z,11.00
2023-05-07T18:26:14.048Z,10.80
2023-05-07T18:28:50.652Z,10.30
2023-05-07T18:31:26.640Z,10.60
2023-05-07T18:34:02.490Z,10.30
2023-05-07T18:36:38.745Z,10.10
2023-05-07T18:39:14.885Z,10.50
2023-05-07T18:41:51.507Z,10.60
2023-05-07T18:44:28.199Z,11.60
2023-05-07T18:47:04.559Z,10.60
2023-05-07T18:49:40.533Z,10.90
2023-05-07T18:52:17.707Z,10.70
2023-05-07T18:54:54.643Z,11.10
2023-05-07T18:57:31.224Z,10.30
2023-05-07T19:00:09.485Z,10.40
2023-05-07T19:02:45.989Z,10.80
2023-05-07T19:05:24.881Z,9.30
2023-05-07T19:08:01.631Z,10.20
2023-05-07T19:10:37.752Z,10.20
2023-05-07T19:13:13.706Z,10.60
2023-05-07T19:15:49.471Z,10.20
2023-05-07T19:18:26.023Z,10.40
2023-05-07T19:21:03.049Z,10.90
2023-05-07T19:23:42.092Z,11.10
2023-05-07T19:26:21.227Z,11.10
2023-05-07T19:31:37.157Z,11.20
2023-05-07T19:34:15.807Z,11.10
2023-05-07T19:36:52.551Z,12.00
2023-05-07T19:39:28.673Z,10.90
2023-05-07T19:42:05.597Z,12.00
2023-05-07T19:44:42.246Z,11.70
2023-05-07T19:47:18.699Z,11.50
2023-05-07T19:49:55.244Z,11.90
2023-05-07T19:52:31.297Z,10.70
2023-05-07T19:55:08.115Z,11.70
2023-05-07T19:57:49.893Z,11.30
2023-05-07T20:00:31.570Z,11.50
2023-05-07T20:03:08.352Z,10.90
2023-05-07T20:05:45.169Z,9.70
2023-05-07T20:08:21.534Z,10.60
2023-05-07T20:11:00.059Z,10.50
2023-05-07T20:13:35.767Z,10.60
2023-05-07T20:16:13.703Z,10.40
2023-05-07T20:18:49.828Z,10.70
2023-05-07T20:21:26.835Z,10.80
2023-05-07T20:24:03.828Z,9.70
2023-05-07T20:26:40.689Z,10.10
2023-05-07T20:29:17.975Z,10.00
2023-05-07T20:31:54.144Z,10.10
2023-05-07T20:34:30.144Z,10.50
2023-05-07T20:37:07.449Z,11.20
2023-05-07T20:39:44.226Z,9.90
2023-05-07T20:42:19.616Z,9.40
2023-05-07T20:44:56.466Z,10.00
2023-05-07T20:47:34.321Z,9.10
2023-05-07T20:50:15.205Z,8.20
2023-05-07T20:52:51.201Z,8.40
2023-05-07T20:55:27.347Z,9.00
2023-05-07T20:58:03.855Z,9.30
2023-05-07T21:00:40.680Z,9.40
2023-05-07T21:03:18.608Z,9.70
2023-05-07T21:06:00.861Z,8.30
2023-05-07T21:08:37.365Z,8.60
2023-05-07T21:11:13.661Z,7.90
2023-05-07T21:13:49.616Z,7.90
2023-05-07T21:16:25.772Z,8.70
2023-05-07T21:19:01.916Z,7.40
2023-05-07T21:21:37.767Z,7.00
2023-05-07T21:24:17.413Z,7.60
2023-05-07T21:26:55.751Z,6.40
2023-05-07T21:29:32.543Z,7.50
2023-05-07T21:32:09.793Z,7.30
2023-05-07T21:34:46.654Z,7.30
2023-05-07T21:37:22.999Z,7.40
2023-05-07T21:39:58.807Z,7.90
2023-05-07T21:42:34.823Z,7.10
2023-05-07T21:45:17.153Z,7.10
2023-05-07T21:47:52.952Z,7.00
2023-05-07T21:50:30.005Z,7.80
2023-05-07T21:53:07.690Z,6.10
2023-05-07T21:55:43.849Z,4.40
2023-05-07T21:58:20.546Z,3.30
2023-05-07T22:00:57.162Z,2.80
2023-05-07T22:03:33.452Z,3.20
2023-05-07T22:06:12.038Z,4.10
2023-05-07T22:08:48.510Z,2.50
2023-05-07T22:11:25.282Z,1.70
2023-05-07T22:14:02.036Z,1.70
2023-05-07T22:16:37.753Z,1.50
2023-05-07T22:19:14.754Z,1.40
2023-05-07T22:21:51.697Z,1.50
2023-05-07T22:24:28.062Z,1.40
2023-05-07T22:27:04.574Z,1.50
2023-05-07T22:29:41.049Z,2.00
2023-05-07T22:32:18.230Z,2.40
2023-05-07T22:34:54.519Z,1.60
2023-05-07T22:37:30.961Z,2.30
2023-05-07T22:40:10.542Z,2.10
2023-05-07T22:42:48.392Z,1.60
2023-05-07T22:45:25.339Z,1.70
2023-05-07T22:48:02.946Z,1.90
2023-05-07T22:50:43.449Z,2.30
2023-05-07T22:53:19.395Z,2.40
2023-05-07T22:55:55.490Z,2.30
2023-05-07T22:58:32.258Z,2.20
2023-05-07T23:01:13.302Z,2.50
2023-05-07T23:03:50.158Z,2.30
2023-05-07T23:06:25.337Z,2.20
2023-05-07T23:09:01.996Z,2.30
2023-05-07T23:11:38.957Z,2.70
2023-05-07T23:14:14.871Z,3.20
2023-05-07T23:16:51.599Z,2.80
2023-05-07T23:19:28.480Z,2.30
2023-05-07T23:22:05.114Z,2.30
2023-05-07T23:24:41.247Z,3.50
2023-05-07T23:27:17.670Z,2.40
2023-05-07T23:29:54.395Z,2.40
2023-05-07T23:32:30.962Z,2.60
2023-05-07T23:35:07.596Z,2.40
2023-05-07T23:37:43.378Z,2.20
2023-05-07T23:40:20.085Z,3.10
2023-05-07T23:42:56.518Z,2.90
2023-05-07T23:45:32.672Z,2.90
2023-05-07T23:48:10.739Z,2.60
2023-05-07T23:50:47.440Z,2.10
2023-05-07T23:53:23.366Z,1.70
2023-05-07T23:55:59.364Z,2.10
2023-05-07T23:58:35.299Z,2.60
